createdAt,value
2022-07-30T00:01:35.933Z,20.56
2022-07-30T00:04:04.543Z,20.52
2022-07-30T00:06:33.554Z,20.53
2022-07-30T00:09:01.776Z,20.53
2022-07-30T00:11:31.767Z,20.61
2022-07-30T00:14:00.154Z,20.68
2022-07-30T00:16:28.573Z,20.76
2022-07-30T00:18:57.235Z,20.85
2022-07-30T00:21:35.879Z,20.90
2022-07-30T00:24:08.643Z,20.93
2022-07-30T00:26:39.172Z,20.99
2022-07-30T00:29:07.869Z,21.02
2022-07-30T00:31:36.326Z,21.09
2022-07-30T00:34:04.466Z,21.19
2022-07-30T00:36:32.841Z,21.25
2022-07-30T00:39:01.226Z,21.29
2022-07-30T00:41:29.382Z,21.34
2022-07-30T00:43:59.661Z,21.38
2022-07-30T00:46:27.956Z,21.42
2022-07-30T00:48:56.165Z,21.48
2022-07-30T00:51:24.536Z,21.53
2022-07-30T00:53:52.777Z,21.56
2022-07-30T00:56:22.739Z,21.57
2022-07-30T00:58:51.147Z,21.53
2022-07-30T01:01:24.008Z,21.61
2022-07-30T01:03:54.452Z,21.66
2022-07-30T01:06:23.990Z,21.72
2022-07-30T01:08:52.210Z,21.73
2022-07-30T01:11:20.381Z,21.73
2022-07-30T01:13:49.038Z,21.71
2022-07-30T01:16:17.507Z,21.68
2022-07-30T01:19:08.617Z,21.64
2022-07-30T01:21:41.684Z,21.55
2022-07-30T01:24:26.907Z,21.48
2022-07-30T01:26:58.409Z,21.46
2022-07-30T01:29:28.764Z,21.45
2022-07-30T01:32:00.330Z,21.42
2022-07-30T01:34:31.241Z,21.40
2022-07-30T01:37:00.961Z,21.37
2022-07-30T01:39:30.578Z,21.37
2022-07-30T01:42:03.579Z,21.33
2022-07-30T01:44:33.518Z,21.30
2022-07-30T01:47:03.327Z,21.33
2022-07-30T01:49:33.896Z,21.31
2022-07-30T01:52:03.947Z,21.37
2022-07-30T01:54:35.006Z,21.44
2022-07-30T01:57:06.185Z,21.42
2022-07-30T01:59:37.031Z,21.48
2022-07-30T02:02:05.204Z,21.48
2022-07-30T02:04:33.594Z,21.51
2022-07-30T02:07:07.679Z,21.53
2022-07-30T02:09:39.349Z,21.56
2022-07-30T02:12:32.440Z,21.53
2022-07-30T02:15:15.495Z,21.55
2022-07-30T02:17:45.888Z,21.52
2022-07-30T02:20:24.985Z,21.54
2022-07-30T02:22:56.528Z,21.53
2022-07-30T02:25:25.244Z,21.51
2022-07-30T02:28:02.335Z,21.51
2022-07-30T02:30:32.949Z,21.56
2022-07-30T02:33:04.605Z,21.56
2022-07-30T02:35:34.693Z,21.56
2022-07-30T02:38:04.180Z,21.59
2022-07-30T02:40:32.460Z,21.63
2022-07-30T02:43:02.731Z,21.69
2022-07-30T02:45:32.510Z,21.71
2022-07-30T02:48:03.723Z,21.75
2022-07-30T02:50:34.869Z,21.76
2022-07-30T02:53:05.004Z,21.82
2022-07-30T02:55:35.823Z,21.89
2022-07-30T02:58:08.088Z,21.88
2022-07-30T03:00:37.569Z,21.93
2022-07-30T03:03:08.557Z,21.98
2022-07-30T03:05:37.657Z,22.00
2022-07-30T03:08:08.474Z,22.03
2022-07-30T03:10:37.630Z,22.06
2022-07-30T03:13:08.764Z,22.13
2022-07-30T03:15:40.166Z,22.16
2022-07-30T03:18:11.957Z,22.20
2022-07-30T03:20:41.625Z,22.29
2022-07-30T03:23:12.474Z,22.32
2022-07-30T03:25:42.481Z,22.34
2022-07-30T03:28:13.360Z,22.41
2022-07-30T03:30:44.088Z,22.43
2022-07-30T03:33:16.256Z,22.47
2022-07-30T03:35:47.357Z,22.46
2022-07-30T03:38:16.468Z,22.50
2022-07-30T03:40:45.523Z,22.51
2022-07-30T03:43:18.504Z,22.55
2022-07-30T03:46:02.521Z,22.61
2022-07-30T03:48:31.781Z,22.59
2022-07-30T03:51:01.112Z,22.63
2022-07-30T03:53:29.472Z,22.63
2022-07-30T03:55:58.347Z,22.62
2022-07-30T03:58:28.043Z,22.62
2022-07-30T04:01:04.472Z,22.63
2022-07-30T04:03:34.269Z,22.65
2022-07-30T04:06:02.545Z,22.60
2022-07-30T04:08:30.773Z,22.50
2022-07-30T04:10:59.120Z,22.41
2022-07-30T04:13:28.809Z,22.36
2022-07-30T04:16:40.582Z,22.39
2022-07-30T04:18:54.699Z,22.40
2022-07-30T04:21:27.019Z,22.43
2022-07-30T04:24:02.261Z,22.41
2022-07-30T04:26:35.938Z,22.46
2022-07-30T04:29:08.827Z,22.48
2022-07-30T04:31:40.991Z,22.45
2022-07-30T04:34:09.958Z,22.50
2022-07-30T04:36:38.346Z,22.47
2022-07-30T04:39:06.687Z,22.47
2022-07-30T04:41:48.331Z,22.44
2022-07-30T04:44:19.520Z,22.49
2022-07-30T04:46:48.016Z,22.46
2022-07-30T04:49:18.606Z,22.48
2022-07-30T04:51:48.333Z,22.53
2022-07-30T04:54:17.800Z,22.59
2022-07-30T04:57:01.075Z,22.64
2022-07-30T04:59:30.991Z,22.66
2022-07-30T05:02:00.983Z,22.66
2022-07-30T05:04:30.547Z,22.74
2022-07-30T05:07:00.653Z,22.80
2022-07-30T05:09:29.984Z,22.78
2022-07-30T05:11:59.602Z,22.86
2022-07-30T05:14:28.806Z,22.83
2022-07-30T05:16:58.988Z,22.84
2022-07-30T05:19:27.327Z,22.90
2022-07-30T05:21:55.446Z,22.94
2022-07-30T05:24:23.707Z,22.98
2022-07-30T05:26:51.900Z,22.97
2022-07-30T05:29:20.381Z,23.01
2022-07-30T05:31:49.453Z,23.04
2022-07-30T05:34:19.219Z,23.05
2022-07-30T05:36:47.521Z,23.08
2022-07-30T05:39:16.576Z,23.09
2022-07-30T05:41:44.954Z,23.13
2022-07-30T05:44:13.220Z,23.15
2022-07-30T05:46:41.705Z,23.18
2022-07-30T05:49:10.056Z,23.18
2022-07-30T05:51:40.060Z,23.20
2022-07-30T05:54:08.173Z,23.17
2022-07-30T05:56:37.760Z,23.15
2022-07-30T05:59:05.953Z,23.16
2022-07-30T06:01:34.666Z,23.16
2022-07-30T06:04:03.034Z,23.16
2022-07-30T06:06:31.499Z,23.12
2022-07-30T06:09:01.170Z,23.10
2022-07-30T06:11:29.337Z,23.08
2022-07-30T06:13:57.596Z,23.07
2022-07-30T06:16:25.759Z,23.07
2022-07-30T06:18:54.101Z,23.15
2022-07-30T06:21:22.294Z,23.19
2022-07-30T06:23:50.579Z,23.24
2022-07-30T06:26:20.794Z,23.26
2022-07-30T06:28:49.012Z,23.27
2022-07-30T06:31:17.559Z,23.32
2022-07-30T06:33:46.885Z,23.30
2022-07-30T06:36:15.941Z,23.26
2022-07-30T06:38:44.471Z,23.29
2022-07-30T06:41:13.047Z,23.37
2022-07-30T06:43:43.095Z,23.36
2022-07-30T06:46:13.678Z,23.47
2022-07-30T06:48:42.982Z,23.52
2022-07-30T06:51:11.429Z,23.59
2022-07-30T06:53:42.502Z,23.63
2022-07-30T06:56:11.207Z,23.68
2022-07-30T06:58:39.721Z,23.71
2022-07-30T07:01:11.304Z,23.75
2022-07-30T07:03:40.704Z,23.79
2022-07-30T07:06:09.872Z,23.75
2022-07-30T07:08:39.443Z,23.75
2022-07-30T07:11:07.801Z,23.74
2022-07-30T07:13:36.325Z,23.69
2022-07-30T07:16:04.955Z,23.63
2022-07-30T07:18:35.333Z,23.57
2022-07-30T07:21:03.975Z,23.42
2022-07-30T07:26:19.922Z,23.41
2022-07-30T07:28:49.149Z,23.41
2022-07-30T07:32:05.366Z,23.43
2022-07-30T07:34:39.380Z,23.42
2022-07-30T07:37:32.816Z,23.44
2022-07-30T07:40:27.953Z,23.36
2022-07-30T07:42:57.132Z,23.37
2022-07-30T07:45:27.692Z,23.44
2022-07-30T07:47:56.423Z,23.44
2022-07-30T07:50:32.693Z,23.49
2022-07-30T07:53:03.139Z,23.48
2022-07-30T07:55:37.890Z,23.51
2022-07-30T07:58:07.036Z,23.56
2022-07-30T08:06:51.367Z,23.50
2022-07-30T08:09:23.158Z,23.41
2022-07-30T08:11:51.470Z,23.44
2022-07-30T08:15:22.069Z,23.46
2022-07-30T08:17:50.480Z,23.52
2022-07-30T08:20:18.864Z,23.70
2022-07-30T08:22:49.990Z,23.90
2022-07-30T08:25:24.365Z,24.02
2022-07-30T08:27:54.261Z,24.24
2022-07-30T08:30:24.335Z,24.39
2022-07-30T08:32:53.222Z,24.50
2022-07-30T08:35:21.889Z,24.49
2022-07-30T08:37:52.566Z,24.50
2022-07-30T08:40:22.992Z,24.52
2022-07-30T08:42:51.550Z,24.63
2022-07-30T08:45:20.247Z,24.75
2022-07-30T08:48:06.936Z,24.72
2022-07-30T08:51:00.551Z,24.75
2022-07-30T08:53:39.975Z,24.66
2022-07-30T08:56:14.563Z,24.56
2022-07-30T08:58:47.979Z,24.49
2022-07-30T09:01:16.302Z,24.42
2022-07-30T09:03:47.422Z,24.41
2022-07-30T09:06:16.538Z,24.46
2022-07-30T09:08:57.441Z,24.45
2022-07-30T09:11:29.251Z,24.43
2022-07-30T09:14:09.927Z,24.46
2022-07-30T09:16:47.102Z,24.60
2022-07-30T09:19:23.964Z,24.74
2022-07-30T09:21:59.829Z,24.82
2022-07-30T09:24:28.989Z,24.89
2022-07-30T09:27:01.592Z,24.97
2022-07-30T09:29:34.149Z,25.02
2022-07-30T09:32:04.481Z,25.02
2022-07-30T09:34:35.969Z,24.98
2022-07-30T09:37:27.891Z,24.97
2022-07-30T09:39:59.750Z,24.83
2022-07-30T09:42:32.310Z,24.79
2022-07-30T09:45:08.267Z,24.66
2022-07-30T09:47:38.282Z,24.49
2022-07-30T09:50:29.993Z,24.33
2022-07-30T09:53:09.549Z,24.23
2022-07-30T09:55:42.162Z,24.21
2022-07-30T09:58:16.741Z,24.23
2022-07-30T10:00:59.904Z,24.32
2022-07-30T10:03:38.476Z,24.33
2022-07-30T10:06:20.882Z,24.40
2022-07-30T10:08:51.381Z,24.40
2022-07-30T10:11:24.123Z,24.35
2022-07-30T10:13:57.308Z,24.34
2022-07-30T10:16:29.493Z,24.33
2022-07-30T10:19:00.371Z,24.22
2022-07-30T10:21:32.402Z,24.22
2022-07-30T10:24:01.401Z,24.24
2022-07-30T10:26:35.121Z,24.34
2022-07-30T10:31:55.685Z,24.63
2022-07-30T10:34:26.181Z,24.79
2022-07-30T10:37:01.711Z,24.93
2022-07-30T10:39:38.271Z,25.06
2022-07-30T10:42:21.158Z,25.28
2022-07-30T10:45:43.701Z,25.51
2022-07-30T10:48:18.149Z,25.55
2022-07-30T10:50:54.971Z,25.50
2022-07-30T10:53:38.615Z,25.42
2022-07-30T10:56:19.047Z,25.38
2022-07-30T10:59:04.997Z,25.26
2022-07-30T11:02:09.692Z,25.09
2022-07-30T11:04:40.455Z,24.96
2022-07-30T11:07:31.746Z,24.84
2022-07-30T11:10:05.225Z,24.74
2022-07-30T11:13:03.899Z,24.59
2022-07-30T11:15:53.717Z,24.32
2022-07-30T11:18:25.010Z,24.19
2022-07-30T11:21:21.472Z,24.15
2022-07-30T11:23:55.002Z,24.11
2022-07-30T11:26:51.853Z,24.17
2022-07-30T11:29:50.430Z,24.06
2022-07-30T11:32:34.244Z,23.94
2022-07-30T11:35:23.336Z,23.99
2022-07-30T11:38:09.193Z,24.02
2022-07-30T11:40:41.673Z,24.17
2022-07-30T11:43:34.684Z,24.26
2022-07-30T11:46:10.588Z,24.42
2022-07-30T11:48:45.754Z,24.68
2022-07-30T11:51:13.914Z,25.07
2022-07-30T11:53:47.367Z,25.46
2022-07-30T11:56:18.034Z,25.79
2022-07-30T11:58:48.981Z,26.05
2022-07-30T12:01:18.580Z,26.06
2022-07-30T12:03:48.652Z,26.08
2022-07-30T12:06:19.887Z,26.13
2022-07-30T12:08:58.151Z,26.17
2022-07-30T12:11:27.530Z,26.25
2022-07-30T12:14:00.414Z,26.36
2022-07-30T12:16:29.943Z,26.48
2022-07-30T12:19:04.550Z,26.55
2022-07-30T12:21:33.154Z,26.56
2022-07-30T12:24:10.063Z,26.55
2022-07-30T12:29:27.306Z,26.37
2022-07-30T12:31:55.620Z,26.14
2022-07-30T12:37:12.503Z,25.78
2022-07-30T12:39:42.796Z,25.63
2022-07-30T12:42:27.280Z,25.69
2022-07-30T12:44:58.379Z,25.75
2022-07-30T12:50:18.470Z,25.75
2022-07-30T12:52:52.007Z,25.76
2022-07-30T12:55:32.236Z,25.86
2022-07-30T12:58:08.500Z,25.92
2022-07-30T13:00:52.365Z,25.96
2022-07-30T13:03:39.574Z,25.94
2022-07-30T13:06:16.377Z,25.84
2022-07-30T13:09:09.729Z,25.74
2022-07-30T13:11:48.764Z,25.66
2022-07-30T13:14:23.627Z,25.63
2022-07-30T13:17:06.789Z,25.55
2022-07-30T13:19:35.539Z,25.49
2022-07-30T13:22:04.788Z,25.48
2022-07-30T13:24:34.330Z,25.62
2022-07-30T13:27:04.408Z,25.69
2022-07-30T13:29:32.906Z,25.68
2022-07-30T13:32:01.506Z,25.65
2022-07-30T13:34:33.739Z,25.65
2022-07-30T13:37:02.434Z,25.57
2022-07-30T13:39:34.206Z,25.44
2022-07-30T13:42:04.632Z,25.36
2022-07-30T13:44:34.263Z,25.24
2022-07-30T13:47:02.598Z,25.20
2022-07-30T13:49:31.024Z,25.08
2022-07-30T13:51:59.343Z,25.05
2022-07-30T13:54:29.923Z,25.02
2022-07-30T13:56:58.363Z,25.13
2022-07-30T13:59:28.306Z,25.39
2022-07-30T14:01:57.475Z,25.66
2022-07-30T14:04:25.913Z,25.83
2022-07-30T14:06:54.086Z,25.75
2022-07-30T14:09:24.486Z,25.69
2022-07-30T14:11:54.003Z,25.58
2022-07-30T14:14:23.737Z,25.42
2022-07-30T14:16:53.842Z,25.29
2022-07-30T14:19:23.893Z,25.13
2022-07-30T14:21:54.240Z,24.94
2022-07-30T14:24:23.603Z,24.73
2022-07-30T14:26:58.318Z,24.55
2022-07-30T14:29:27.463Z,24.37
2022-07-30T14:31:57.453Z,24.17
2022-07-30T14:34:25.915Z,24.12
2022-07-30T14:36:55.292Z,24.02
2022-07-30T14:39:23.845Z,24.06
2022-07-30T14:41:52.353Z,24.06
2022-07-30T14:44:22.404Z,24.03
2022-07-30T14:46:52.213Z,24.06
2022-07-30T14:49:23.905Z,24.09
2022-07-30T14:51:52.602Z,24.19
2022-07-30T14:54:23.614Z,24.29
2022-07-30T14:56:57.761Z,24.41
2022-07-30T14:59:26.695Z,24.46
2022-07-30T15:01:55.380Z,24.37
2022-07-30T15:04:26.280Z,24.39
2022-07-30T15:06:54.701Z,24.39
2022-07-30T15:09:22.890Z,24.39
2022-07-30T15:12:08.721Z,24.40
2022-07-30T15:14:39.934Z,24.41
2022-07-30T15:17:09.985Z,24.43
2022-07-30T15:19:49.462Z,24.53
2022-07-30T15:22:18.653Z,24.59
2022-07-30T15:24:46.931Z,24.67
2022-07-30T15:27:15.356Z,24.73
2022-07-30T15:29:44.754Z,24.77
2022-07-30T15:32:12.960Z,24.72
2022-07-30T15:34:42.735Z,24.71
2022-07-30T15:37:10.852Z,24.63
2022-07-30T15:39:39.503Z,24.54
2022-07-30T15:42:08.019Z,24.57
2022-07-30T15:44:36.347Z,24.56
2022-07-30T15:47:05.438Z,24.58
2022-07-30T15:49:33.712Z,24.57
2022-07-30T15:52:03.631Z,24.48
2022-07-30T15:54:32.140Z,24.46
2022-07-30T15:57:01.326Z,24.42
2022-07-30T15:59:30.329Z,24.38
2022-07-30T16:01:58.752Z,24.42
2022-07-30T16:04:31.178Z,24.40
2022-07-30T16:07:04.256Z,24.45
2022-07-30T16:09:32.784Z,24.44
2022-07-30T16:12:01.438Z,24.45
2022-07-30T16:14:30.504Z,24.41
2022-07-30T16:16:58.794Z,24.32
2022-07-30T16:19:27.396Z,24.32
2022-07-30T16:21:56.258Z,24.32
2022-07-30T16:24:25.844Z,24.27
2022-07-30T16:26:54.178Z,24.30
2022-07-30T16:29:23.089Z,24.34
2022-07-30T16:31:51.815Z,24.35
2022-07-30T16:34:26.784Z,24.39
2022-07-30T16:36:55.622Z,24.32
2022-07-30T16:39:25.466Z,24.30
2022-07-30T16:41:54.439Z,24.24
2022-07-30T16:44:22.651Z,24.17
2022-07-30T16:46:51.088Z,24.14
2022-07-30T16:49:19.444Z,24.13
2022-07-30T16:51:47.930Z,24.10
2022-07-30T16:54:16.408Z,24.09
2022-07-30T16:56:52.877Z,24.10
2022-07-30T16:59:21.183Z,24.06
2022-07-30T17:01:51.066Z,24.10
2022-07-30T17:04:20.945Z,24.07
2022-07-30T17:06:51.673Z,24.00
2022-07-30T17:09:20.481Z,23.94
2022-07-30T17:11:52.140Z,23.88
2022-07-30T17:14:22.330Z,23.81
2022-07-30T17:16:50.972Z,23.80
2022-07-30T17:19:19.467Z,23.72
2022-07-30T17:21:47.666Z,23.66
2022-07-30T17:24:15.991Z,23.58
2022-07-30T17:26:44.991Z,23.53
2022-07-30T17:29:17.932Z,23.50
2022-07-30T17:31:47.595Z,23.53
2022-07-30T17:34:20.405Z,23.46
2022-07-30T17:36:53.149Z,23.44
2022-07-30T17:40:26.685Z,23.47
2022-07-30T17:42:25.757Z,23.41
2022-07-30T17:44:56.004Z,23.38
2022-07-30T17:47:24.296Z,23.29
2022-07-30T17:49:53.094Z,23.29
2022-07-30T17:55:22.002Z,23.26
2022-07-30T17:57:50.525Z,23.29
2022-07-30T18:00:20.325Z,23.29
2022-07-30T18:02:48.677Z,23.25
2022-07-30T18:05:16.984Z,23.22
2022-07-30T18:07:45.513Z,23.26
2022-07-30T18:10:14.294Z,23.20
2022-07-30T18:12:48.848Z,23.23
2022-07-30T18:15:20.886Z,23.25
2022-07-30T18:17:49.090Z,23.30
2022-07-30T18:20:17.774Z,23.26
2022-07-30T18:22:46.177Z,23.29
2022-07-30T18:25:20.132Z,23.31
2022-07-30T18:27:52.633Z,23.28
2022-07-30T18:30:25.607Z,23.26
2022-07-30T18:32:53.914Z,23.22
2022-07-30T18:35:22.286Z,23.22
2022-07-30T18:37:50.761Z,23.17
2022-07-30T18:40:23.969Z,23.08
2022-07-30T18:42:52.662Z,23.05
2022-07-30T18:45:22.893Z,23.05
2022-07-30T18:47:51.291Z,23.07
2022-07-30T18:50:19.833Z,23.03
2022-07-30T18:52:48.398Z,23.03
2022-07-30T18:55:18.050Z,22.97
2022-07-30T18:57:47.067Z,22.94
2022-07-30T19:00:34.444Z,22.95
2022-07-30T19:03:04.436Z,22.95
2022-07-30T19:05:33.215Z,22.93
2022-07-30T19:08:01.376Z,22.94
2022-07-30T19:10:30.003Z,22.93
2022-07-30T19:12:58.269Z,22.92
2022-07-30T19:15:29.613Z,22.87
2022-07-30T19:18:01.273Z,22.92
2022-07-30T19:20:29.603Z,22.97
2022-07-30T19:23:05.396Z,22.96
2022-07-30T19:25:35.493Z,22.97
2022-07-30T19:28:05.543Z,22.99
2022-07-30T19:30:37.035Z,23.01
2022-07-30T19:33:09.090Z,22.96
2022-07-30T19:35:42.023Z,22.96
2022-07-30T19:38:14.336Z,22.91
2022-07-30T19:40:50.938Z,22.90
2022-07-30T19:43:24.024Z,22.87
2022-07-30T19:45:54.274Z,22.83
2022-07-30T19:48:29.474Z,22.92
2022-07-30T19:51:01.362Z,22.91
2022-07-30T19:53:31.668Z,22.94
2022-07-30T19:56:08.239Z,22.97
2022-07-30T20:01:40.477Z,22.92
2022-07-30T20:04:11.195Z,22.97
2022-07-30T20:06:46.088Z,22.96
2022-07-30T20:09:16.347Z,22.96
2022-07-30T20:11:46.039Z,22.96
2022-07-30T20:14:17.479Z,22.99
2022-07-30T20:16:47.706Z,23.02
2022-07-30T20:19:16.653Z,23.03
2022-07-30T20:21:57.161Z,22.99
2022-07-30T20:24:28.661Z,23.02
2022-07-30T20:26:57.754Z,22.97
2022-07-30T20:29:26.391Z,23.01
2022-07-30T20:31:56.187Z,23.03
2022-07-30T20:34:25.941Z,22.96
2022-07-30T20:36:56.537Z,23.01
2022-07-30T20:39:25.189Z,23.03
2022-07-30T20:42:08.100Z,23.04
2022-07-30T20:44:37.638Z,23.07
2022-07-30T20:47:08.575Z,23.04
2022-07-30T20:49:37.188Z,22.99
2022-07-30T20:52:06.465Z,22.95
2022-07-30T20:54:37.378Z,22.94
2022-07-30T20:57:15.896Z,22.94
2022-07-30T20:59:51.128Z,22.94
2022-07-30T21:02:26.908Z,22.95
2022-07-30T21:04:59.648Z,22.92
2022-07-30T21:07:36.583Z,22.95
2022-07-30T21:10:07.356Z,22.97
2022-07-30T21:12:36.695Z,22.97
2022-07-30T21:15:15.799Z,22.95
2022-07-30T21:17:54.888Z,22.98
2022-07-30T21:23:18.827Z,23.01
2022-07-30T21:26:00.818Z,23.02
2022-07-30T21:28:36.177Z,23.05
2022-07-30T21:31:07.006Z,23.01
2022-07-30T21:33:37.543Z,23.01
2022-07-30T21:36:10.350Z,23.10
2022-07-30T21:38:42.827Z,23.07
2022-07-30T21:41:15.256Z,23.11
2022-07-30T21:43:44.614Z,23.15
2022-07-30T21:46:13.809Z,23.15
2022-07-30T21:48:44.549Z,23.15
2022-07-30T21:51:14.006Z,23.11
2022-07-30T21:53:46.260Z,23.15
2022-07-30T21:56:15.818Z,23.17
2022-07-30T21:58:44.487Z,23.15
2022-07-30T22:01:17.430Z,23.16
2022-07-30T22:04:01.600Z,23.20
2022-07-30T22:06:34.509Z,23.21
2022-07-30T22:09:09.925Z,23.17
2022-07-30T22:11:47.944Z,23.19
2022-07-30T22:14:23.181Z,23.17
2022-07-30T22:16:54.104Z,23.15
2022-07-30T22:19:25.990Z,23.18
2022-07-30T22:21:56.162Z,23.19
2022-07-30T22:24:30.179Z,23.15
2022-07-30T22:27:17.675Z,23.17
2022-07-30T22:29:55.773Z,23.17
2022-07-30T22:32:24.826Z,23.18
2022-07-30T22:34:54.694Z,23.13
2022-07-30T22:37:31.375Z,23.15
2022-07-30T22:40:02.903Z,23.11
2022-07-30T22:42:46.717Z,23.05
2022-07-30T22:45:34.011Z,23.05
2022-07-30T22:48:10.321Z,23.01
2022-07-30T22:50:41.341Z,22.91
2022-07-30T22:54:03.680Z,22.97
2022-07-30T22:56:03.080Z,22.96
2022-07-30T22:58:33.141Z,22.88
2022-07-30T23:01:05.382Z,22.91
2022-07-30T23:03:35.192Z,22.91
2022-07-30T23:06:05.147Z,22.88
2022-07-30T23:08:34.928Z,22.86
2022-07-30T23:11:03.381Z,22.84
2022-07-30T23:12:16.401Z,22.92
2022-07-30T23:12:27.126Z,23.04
2022-07-30T23:13:33.427Z,22.86
2022-07-30T23:16:01.823Z,22.84
2022-07-30T23:18:30.055Z,22.84
2022-07-30T23:21:00.537Z,22.85
2022-07-30T23:23:34.095Z,22.86
2022-07-30T23:26:03.172Z,22.88
2022-07-30T23:28:31.742Z,22.85
2022-07-30T23:31:00.448Z,22.85
2022-07-30T23:33:29.091Z,22.88
2022-07-30T23:35:57.252Z,22.88
2022-07-30T23:38:25.729Z,22.92
2022-07-30T23:41:01.748Z,22.94
2022-07-30T23:43:31.295Z,22.95
2022-07-30T23:46:00.857Z,23.02
2022-07-30T23:48:29.766Z,22.95
2022-07-30T23:50:58.002Z,23.02
2022-07-30T23:53:26.633Z,23.01
2022-07-30T23:55:57.691Z,23.01
2022-07-30T23:58:26.184Z,23.05
